KSTL/STL METAR and TAF weather

Enter ICAO airport designator
Station Type Date Time Source
KSTL METAR 2020/08/15 16:51 UTC NOAA

KSTL 151651Z VRB03KT 10SM BKN024 BKN150 BKN250 30/22 A2997 RMK AO2 SLP137 T03000222


Station Type Date Time Source
KSTL Decoded METAR 2020/08/15 16:51 UTC NOAA

LAMBERT-ST LOUIS INTERNATIONAL AIRPORT , MO, United States (KSTL) 38-45N 90-22W 171M
Aug 15, 2020 - 12:51 PM EDT / 2020.08.15 1651 UTC
Wind: Variable at 3 MPH (3 KT):0
Visibility: 10 mile(s):0
Sky conditions: mostly cloudy
Temperature: 86.0 F (30.0 C)
Heat index: 92.1 F (33.4 C):1
Dew Point: 72.0 F (22.2 C)
Relative Humidity: 63%
Pressure (altimeter): 29.97 in. Hg (1014 hPa)
ob: KSTL 151651Z VRB03KT 10SM BKN024 BKN150 BKN250 30/22 A2997 RMK AO2 SLP137 T03000222
cycle: 17

Station Type Date Time Source
KSTL TAF 2020/08/15 18:22 UTC NOAA

TAF KSTL 151720Z 1518/1624 VRB04KT P6SM BKN030
FM152100 34007KT P6SM VCTS SCT035CB BKN060
FM152300 34006KT P6SM SCT030
FM160300 35005KT P6SM SKC

Example: see airport list